Pagrindinis puslapis
METAR-TAF:

METAR-TAF

Oro uostai :

Oro uostas

Kachramanmarašas, Turkija

platuma: 37-32-20N, ilguma: 036-57-12E, Aukštis: 525 m

Dabartinis oras

Ataskaita buvo paskelbta 44 minutes, ne 03:50 UTC
Vėjas 4 kt iš Rytų, svyruoja nuo Rytų/Šiaurės Rytų ir Rytų/Pietryčių
Temperatūra 10°C
Drėgmė 93%
Slėgis 1014 hPa
Matomumas 10 km arba daugiau
nėra debesų žemiau 1500 m ir nėra kamuolinių lietaus debesų

METAR: LTCN 070350Z 09004KT 060V120 CAVOK 10/09 Q1014 NOSIG

Laikas: 07:34 (04:34 UTC)

Prognozė

Ataskaita buvo paskelbta 2 valandos ir 54 minutes, ne 01:40 UTC
Prognozė galioja nuo 07 metu 03 UTC su 07 metu 12 UTC
Vėjas 2 kt nuo kintamojo kryptimis
Matomumas 10 km arba daugiau
nėra debesų žemiau 1500 m ir nėra kamuolinių lietaus debesų
Tapsmas
nuo 07 metu 03 UTC su 07 metu 06 UTC
Išsisklaidę debesys ne aukštis 4000 ft
Su prošvaistėmis ne aukštis 10000 ft
Tapsmas
nuo 07 metu 07 UTC su 07 metu 10 UTC
Vėjas 12 kt iš Vakarų/Šiaurės Vakarų

TAF: LTCN 070140Z 0703/0712 VRB02KT CAVOK BECMG 0703/0706 SCT040 BKN100 BECMG 0707/0710 29012KT

Orai ataskaitas ir orų prognozės (METAR, TAF).

turimą stotys yra geltonos ir raudonos taškus žemėlapyje.

Perkelti pele per norėdami pamatyti stoties vardą.

Tada spustelėkite, norėdami matyti oro stebėjimo ir prognozės.

Norėdami pakeisti žemėlapį: spustelėkite ant žalios mygtukų su juodo kryžiaus žemyn,; žalią mygtuką su brūkšneliu, jei norite nutolinti; arba žalių rodyklių gretimoms žemėlapius.


METAR-TAF: